createdAt,value
2023-02-07T00:00:48.071Z,60.82
2023-02-07T00:01:51.095Z,63.66
2023-02-07T00:02:56.920Z,65.24
2023-02-07T00:04:00.331Z,65.00
2023-02-07T00:05:02.316Z,64.75
2023-02-07T00:06:09.916Z,65.82
2023-02-07T00:07:11.803Z,61.93
2023-02-07T00:08:15.219Z,64.19
2023-02-07T00:09:17.467Z,61.75
2023-02-07T00:10:20.417Z,64.55
2023-02-07T00:11:23.466Z,64.33
2023-02-07T00:12:26.414Z,64.86
2023-02-07T00:13:28.303Z,63.14
2023-02-07T00:14:31.188Z,65.50
2023-02-07T00:15:33.106Z,63.33
2023-02-07T00:16:37.380Z,65.02
2023-02-07T00:17:39.314Z,65.81
2023-02-07T00:18:42.589Z,64.79
2023-02-07T00:19:44.548Z,62.81
2023-02-07T00:20:47.438Z,64.12
2023-02-07T00:21:50.374Z,64.46
2023-02-07T00:22:52.401Z,65.08
2023-02-07T00:23:55.362Z,63.10
2023-02-07T00:24:57.296Z,65.51
2023-02-07T00:26:00.184Z,65.42
2023-02-07T00:27:02.837Z,66.08
2023-02-07T00:28:06.842Z,63.99
2023-02-07T00:29:08.840Z,63.81
2023-02-07T00:30:12.892Z,64.20
2023-02-07T00:31:17.106Z,64.08
2023-02-07T00:32:21.439Z,66.69
2023-02-07T00:33:23.461Z,65.20
2023-02-07T00:34:26.674Z,66.10
2023-02-07T00:35:28.597Z,65.54
2023-02-07T00:36:34.086Z,65.10
2023-02-07T00:37:36.130Z,65.15
2023-02-07T00:38:40.516Z,66.05
2023-02-07T00:39:42.491Z,61.69
2023-02-07T00:40:45.781Z,62.22
2023-02-07T00:41:48.067Z,65.51
2023-02-07T00:42:51.664Z,65.65
2023-02-07T00:43:53.939Z,65.27
2023-02-07T00:44:56.826Z,64.09
2023-02-07T00:45:59.773Z,63.50
2023-02-07T00:47:03.257Z,65.83
2023-02-07T00:48:06.948Z,66.05
2023-02-07T00:49:09.898Z,66.33
2023-02-07T00:50:11.920Z,65.12
2023-02-07T00:51:15.268Z,65.38
2023-02-07T00:52:20.029Z,65.73
2023-02-07T00:53:23.028Z,65.03
2023-02-07T00:54:24.968Z,64.55
2023-02-07T00:55:28.620Z,65.89
2023-02-07T00:56:31.641Z,64.46
2023-02-07T00:57:34.549Z,64.06
2023-02-07T00:58:36.703Z,64.76
2023-02-07T00:59:39.594Z,63.89
2023-02-07T01:00:41.595Z,64.01
2023-02-07T01:01:45.729Z,64.35
2023-02-07T01:02:47.745Z,64.33
2023-02-07T01:03:52.169Z,63.74
2023-02-07T01:04:55.197Z,64.33
2023-02-07T01:05:57.374Z,64.73
2023-02-07T01:07:03.434Z,63.00
2023-02-07T01:08:05.372Z,64.37
2023-02-07T01:09:08.377Z,65.55
2023-02-07T01:10:11.496Z,64.50
2023-02-07T01:11:18.744Z,64.63
2023-02-07T01:12:20.693Z,64.34
2023-02-07T01:13:23.637Z,64.13
2023-02-07T01:14:26.952Z,64.92
2023-02-07T01:15:28.961Z,62.50
2023-02-07T01:16:33.943Z,64.03
2023-02-07T01:17:35.949Z,65.04
2023-02-07T01:18:38.822Z,64.89
2023-02-07T01:19:42.306Z,64.79
2023-02-07T01:20:45.492Z,64.94
2023-02-07T01:21:47.483Z,65.43
2023-02-07T01:22:50.497Z,65.14
2023-02-07T01:23:56.458Z,65.12
2023-02-07T01:24:59.316Z,63.60
2023-02-07T01:26:05.232Z,65.05
2023-02-07T01:27:08.191Z,64.33
2023-02-07T01:28:10.857Z,64.66
2023-02-07T01:29:16.324Z,64.24
2023-02-07T01:30:18.652Z,64.73
2023-02-07T01:31:22.705Z,64.65
2023-02-07T01:32:24.967Z,65.42
2023-02-07T01:33:27.862Z,64.54
2023-02-07T01:34:30.761Z,64.56
2023-02-07T01:35:34.131Z,65.10
2023-02-07T01:36:37.057Z,64.75
2023-02-07T01:37:39.538Z,63.10
2023-02-07T01:38:44.745Z,63.69
2023-02-07T01:39:48.021Z,61.78
2023-02-07T01:40:50.003Z,64.13
2023-02-07T01:41:52.897Z,63.81
2023-02-07T01:42:57.573Z,63.13
2023-02-07T01:44:03.455Z,62.30
2023-02-07T01:45:17.790Z,65.50
2023-02-07T01:46:20.742Z,65.05
2023-02-07T01:47:24.475Z,65.70
2023-02-07T01:48:32.601Z,65.27
2023-02-07T01:49:36.163Z,64.04
2023-02-07T01:50:43.510Z,64.68
2023-02-07T01:51:49.667Z,62.50
2023-02-07T01:52:53.540Z,65.27
2023-02-07T01:53:59.669Z,65.73
2023-02-07T01:55:07.155Z,63.81
2023-02-07T01:56:20.123Z,65.54
2023-02-07T01:57:33.052Z,65.43
2023-02-07T01:58:36.350Z,62.19
2023-02-07T01:59:43.953Z,62.94
2023-02-07T02:00:47.081Z,64.84
2023-02-07T02:01:50.061Z,65.72
2023-02-07T02:02:52.991Z,63.26
2023-02-07T02:03:57.906Z,66.49
2023-02-07T02:05:00.108Z,67.61
2023-02-07T02:06:05.149Z,66.66
2023-02-07T02:07:10.206Z,64.92
2023-02-07T02:08:13.344Z,65.76
2023-02-07T02:09:16.925Z,67.14
2023-02-07T02:10:23.273Z,66.27
2023-02-07T02:11:49.820Z,65.32
2023-02-07T02:13:11.734Z,65.50
2023-02-07T02:14:27.455Z,65.17
2023-02-07T02:15:41.161Z,63.70
2023-02-07T02:16:53.125Z,64.29
2023-02-07T02:18:17.001Z,61.94
2023-02-07T02:19:45.343Z,64.23
2023-02-07T02:21:30.338Z,64.95
2023-02-07T02:23:00.194Z,63.70
2023-02-07T02:24:36.295Z,65.26
2023-02-07T02:26:11.522Z,64.57
2023-02-07T02:27:27.318Z,64.62
2023-02-07T02:29:06.233Z,64.90
2023-02-07T02:30:36.541Z,65.75
2023-02-07T02:32:04.682Z,65.07
2023-02-07T02:33:24.701Z,63.74
2023-02-07T02:34:30.689Z,65.67
2023-02-07T02:35:41.479Z,65.29
2023-02-07T02:36:52.447Z,64.66
2023-02-07T02:38:01.540Z,64.19
2023-02-07T02:39:23.259Z,64.99
2023-02-07T02:40:32.250Z,65.11
2023-02-07T02:41:42.244Z,64.13
2023-02-07T02:42:50.438Z,65.27
2023-02-07T02:43:58.264Z,64.66
2023-02-07T02:45:05.397Z,65.48
2023-02-07T02:46:13.234Z,64.31
2023-02-07T02:47:17.208Z,63.75
2023-02-07T02:48:22.315Z,64.88
2023-02-07T02:49:26.065Z,64.87
2023-02-07T02:50:31.693Z,64.37
2023-02-07T02:51:33.854Z,63.86
2023-02-07T02:52:49.856Z,65.00
2023-02-07T02:53:57.079Z,61.31
2023-02-07T02:55:06.367Z,64.50
2023-02-07T02:56:40.368Z,62.44
2023-02-07T02:57:55.961Z,64.19
2023-02-07T02:59:21.559Z,65.24
2023-02-07T03:00:41.927Z,65.05
2023-02-07T03:01:55.673Z,64.84
2023-02-07T03:03:16.351Z,65.49
2023-02-07T03:04:34.466Z,64.59
2023-02-07T03:05:46.350Z,65.20
2023-02-07T03:07:06.594Z,63.96
2023-02-07T03:08:19.292Z,64.85
2023-02-07T03:09:34.410Z,64.14
2023-02-07T03:10:43.950Z,64.00
2023-02-07T03:11:56.248Z,64.74
2023-02-07T03:13:03.309Z,63.52
2023-02-07T03:14:14.555Z,64.93
2023-02-07T03:15:21.190Z,64.80
2023-02-07T03:16:29.335Z,65.31
2023-02-07T03:17:38.244Z,64.75
2023-02-07T03:18:48.743Z,65.19
2023-02-07T03:20:00.702Z,64.52
2023-02-07T03:21:11.676Z,64.09
2023-02-07T03:22:18.211Z,65.10
2023-02-07T03:23:22.831Z,64.83
2023-02-07T03:24:29.637Z,64.69
2023-02-07T03:25:33.285Z,62.37
2023-02-07T03:26:37.065Z,63.40
2023-02-07T03:27:42.617Z,64.02
2023-02-07T03:28:46.650Z,64.18
2023-02-07T03:29:57.613Z,64.68
2023-02-07T03:31:03.049Z,64.37
2023-02-07T03:32:09.360Z,64.86
2023-02-07T03:33:13.945Z,64.88
2023-02-07T03:34:22.203Z,65.26
2023-02-07T03:35:31.113Z,64.35
2023-02-07T03:36:41.266Z,63.85
2023-02-07T03:37:48.201Z,64.73
2023-02-07T03:38:51.335Z,64.58
2023-02-07T03:39:53.634Z,63.97
2023-02-07T03:41:00.840Z,63.85
2023-02-07T03:42:07.254Z,64.49
2023-02-07T03:43:16.113Z,63.43
2023-02-07T03:44:22.471Z,64.83
2023-02-07T03:45:26.838Z,63.90
2023-02-07T03:46:34.674Z,64.40
2023-02-07T03:47:37.625Z,64.42
2023-02-07T03:48:39.571Z,63.35
2023-02-07T03:49:42.461Z,64.54
2023-02-07T03:50:47.594Z,64.02
2023-02-07T03:51:51.983Z,64.29
2023-02-07T03:52:53.929Z,63.89
2023-02-07T03:53:56.931Z,63.93
2023-02-07T03:54:58.867Z,63.36
2023-02-07T03:56:01.838Z,64.81
2023-02-07T03:57:05.406Z,63.84
2023-02-07T03:58:08.611Z,64.54
2023-02-07T03:59:11.067Z,64.64
2023-02-07T04:00:15.723Z,63.51
2023-02-07T04:01:17.881Z,63.98
2023-02-07T04:02:20.826Z,63.80
2023-02-07T04:03:22.824Z,63.42
2023-02-07T04:04:25.994Z,63.72
2023-02-07T04:05:27.908Z,64.18
2023-02-07T04:06:32.162Z,64.32
2023-02-07T04:07:34.254Z,63.34
2023-02-07T04:08:37.233Z,64.16
2023-02-07T04:09:39.251Z,63.99
2023-02-07T04:10:42.204Z,64.09
2023-02-07T04:11:44.114Z,64.11
2023-02-07T04:12:47.039Z,63.49
2023-02-07T04:13:48.965Z,64.34
2023-02-07T04:14:51.898Z,64.40
2023-02-07T04:15:54.243Z,64.41
2023-02-07T04:16:57.268Z,63.51
2023-02-07T04:17:59.202Z,63.75
2023-02-07T04:19:02.151Z,63.93
2023-02-07T04:20:05.901Z,64.30
2023-02-07T04:21:10.207Z,64.09
2023-02-07T04:22:13.454Z,64.47
2023-02-07T04:23:16.347Z,63.67
2023-02-07T04:24:18.313Z,64.56
2023-02-07T04:25:21.236Z,64.67
2023-02-07T04:26:25.183Z,64.33
2023-02-07T04:27:28.050Z,64.13
2023-02-07T04:28:30.175Z,64.65
2023-02-07T04:29:33.079Z,63.85
2023-02-07T04:30:35.038Z,64.64
2023-02-07T04:31:38.659Z,63.20
2023-02-07T04:32:40.581Z,64.32
2023-02-07T04:33:44.688Z,64.32
2023-02-07T04:34:46.651Z,64.02
2023-02-07T04:35:56.180Z,64.10
2023-02-07T04:36:59.107Z,64.31
2023-02-07T04:38:02.446Z,64.11
2023-02-07T04:39:05.503Z,63.76
2023-02-07T04:40:08.578Z,64.17
2023-02-07T04:41:11.612Z,64.22
2023-02-07T04:42:13.565Z,63.69
2023-02-07T04:43:16.682Z,64.26
2023-02-07T04:44:18.653Z,64.01
2023-02-07T04:45:21.566Z,63.69
2023-02-07T04:46:23.453Z,63.11
2023-02-07T04:47:26.425Z,63.32
2023-02-07T04:48:28.455Z,64.06
2023-02-07T04:49:34.159Z,63.54
2023-02-07T04:50:36.438Z,64.02
2023-02-07T04:51:39.428Z,64.17
2023-02-07T04:52:41.477Z,63.34
2023-02-07T04:53:46.148Z,64.06
2023-02-07T04:54:48.059Z,64.33
2023-02-07T04:55:52.253Z,64.07
2023-02-07T04:56:54.228Z,64.62
2023-02-07T04:57:57.140Z,64.13
2023-02-07T04:58:59.053Z,64.05
2023-02-07T05:00:02.194Z,63.19
2023-02-07T05:01:04.162Z,63.74
2023-02-07T05:02:07.076Z,63.78
2023-02-07T05:03:09.662Z,63.05
2023-02-07T05:04:12.546Z,63.60
2023-02-07T05:05:14.484Z,63.47
2023-02-07T05:06:17.422Z,64.16
2023-02-07T05:07:19.341Z,63.30
2023-02-07T05:08:24.207Z,63.10
2023-02-07T05:09:29.087Z,63.53
2023-02-07T05:10:31.994Z,63.00
2023-02-07T05:11:33.977Z,63.13
2023-02-07T05:12:36.923Z,63.90
2023-02-07T05:13:38.831Z,63.95
2023-02-07T05:14:41.720Z,63.91
2023-02-07T05:15:43.628Z,64.13
2023-02-07T05:16:46.739Z,64.45
2023-02-07T05:17:48.760Z,64.40
2023-02-07T05:18:51.761Z,63.79
2023-02-07T05:19:53.692Z,63.78
2023-02-07T05:20:56.601Z,63.18
2023-02-07T05:21:59.483Z,63.89
2023-02-07T05:23:01.471Z,63.24
2023-02-07T05:24:04.791Z,62.93
2023-02-07T05:25:08.472Z,63.77
2023-02-07T05:26:11.460Z,64.09
2023-02-07T05:27:13.306Z,63.30
2023-02-07T05:28:16.688Z,64.05
2023-02-07T05:29:18.725Z,64.02
2023-02-07T05:30:21.891Z,64.21
2023-02-07T05:31:45.597Z,63.12
2023-02-07T05:33:05.561Z,63.21
2023-02-07T05:34:08.483Z,64.41
2023-02-07T05:35:10.406Z,64.45
2023-02-07T05:36:13.313Z,63.99
2023-02-07T05:37:15.245Z,64.10
2023-02-07T05:38:20.651Z,63.63
2023-02-07T05:39:22.550Z,63.61
2023-02-07T05:40:28.289Z,63.32
2023-02-07T05:41:30.187Z,63.04
2023-02-07T05:42:33.166Z,64.07
2023-02-07T05:43:36.066Z,63.12
2023-02-07T05:44:37.994Z,63.57
2023-02-07T05:45:41.545Z,63.35
2023-02-07T05:46:43.627Z,63.66
2023-02-07T05:47:46.537Z,63.04
2023-02-07T05:48:48.481Z,63.27
2023-02-07T05:49:51.470Z,63.05
2023-02-07T05:50:54.355Z,64.20
2023-02-07T05:51:56.252Z,64.06
2023-02-07T05:52:59.098Z,63.96
2023-02-07T05:54:00.977Z,62.93
2023-02-07T05:55:03.989Z,63.43
2023-02-07T05:56:07.424Z,64.09
2023-02-07T05:57:10.374Z,63.51
2023-02-07T05:58:13.280Z,63.89
2023-02-07T05:59:15.267Z,63.83
2023-02-07T06:00:20.443Z,64.05
2023-02-07T06:01:22.438Z,63.63
2023-02-07T06:02:26.112Z,63.82
2023-02-07T06:03:29.221Z,64.15
2023-02-07T06:04:31.236Z,62.88
2023-02-07T06:05:35.203Z,63.53
2023-02-07T06:06:37.282Z,64.56
2023-02-07T06:07:40.505Z,64.14
2023-02-07T06:08:42.438Z,63.51
2023-02-07T06:09:45.363Z,62.71
2023-02-07T06:10:48.193Z,62.18
2023-02-07T06:11:52.477Z,61.40
2023-02-07T06:12:54.686Z,63.31
2023-02-07T06:13:57.701Z,63.69
2023-02-07T06:14:59.781Z,62.76
2023-02-07T06:16:02.754Z,63.84
2023-02-07T06:17:04.671Z,63.86
2023-02-07T06:18:07.807Z,63.15
2023-02-07T06:19:10.468Z,63.95
2023-02-07T06:20:13.822Z,64.17
2023-02-07T06:21:15.811Z,64.15
2023-02-07T06:22:19.247Z,63.59
2023-02-07T06:23:23.064Z,63.55
2023-02-07T06:24:25.033Z,63.66
2023-02-07T06:25:27.950Z,63.49
2023-02-07T06:26:29.927Z,63.76
2023-02-07T06:27:34.151Z,63.41
2023-02-07T06:28:36.068Z,62.89
2023-02-07T06:29:39.137Z,63.76
2023-02-07T06:30:42.268Z,62.96
2023-02-07T06:31:45.650Z,61.91
2023-02-07T06:32:48.707Z,63.04
2023-02-07T06:33:50.719Z,63.98
2023-02-07T06:34:53.663Z,62.61
2023-02-07T06:35:55.999Z,64.26
2023-02-07T06:36:58.950Z,64.32
2023-02-07T06:38:00.881Z,63.57
2023-02-07T06:39:04.908Z,63.20
2023-02-07T06:40:07.437Z,63.94
2023-02-07T06:41:11.239Z,64.25
2023-02-07T06:42:14.171Z,62.36
2023-02-07T06:43:17.465Z,62.54
2023-02-07T06:44:20.432Z,63.77
2023-02-07T06:45:22.324Z,63.75
2023-02-07T06:46:25.410Z,63.70
2023-02-07T06:47:27.500Z,63.79
2023-02-07T06:48:30.457Z,62.82
2023-02-07T06:49:32.398Z,63.18
2023-02-07T06:50:35.400Z,63.72
2023-02-07T06:51:38.389Z,64.08
2023-02-07T06:52:41.311Z,62.99
2023-02-07T06:53:43.234Z,63.53
2023-02-07T06:54:46.288Z,63.79
2023-02-07T06:55:48.318Z,63.56
2023-02-07T06:56:51.461Z,63.51
2023-02-07T06:57:55.076Z,64.22
2023-02-07T06:58:59.534Z,63.13
2023-02-07T07:00:02.651Z,63.40
2023-02-07T07:01:05.247Z,62.74
2023-02-07T07:02:08.240Z,63.23
2023-02-07T07:03:15.136Z,63.54
2023-02-07T07:04:18.636Z,63.03
2023-02-07T07:05:21.735Z,63.79
2023-02-07T07:06:23.744Z,63.28
2023-02-07T07:07:26.713Z,63.36
2023-02-07T07:08:28.838Z,62.70
2023-02-07T07:09:31.834Z,63.15
2023-02-07T07:10:33.907Z,62.39
2023-02-07T07:11:39.020Z,61.93
2023-02-07T07:12:42.181Z,62.47
2023-02-07T07:13:44.131Z,62.37
2023-02-07T07:14:48.470Z,61.88
2023-02-07T07:15:50.528Z,61.48
2023-02-07T07:16:55.264Z,62.08
2023-02-07T07:17:59.423Z,61.55
2023-02-07T07:19:02.685Z,61.57
2023-02-07T07:20:05.510Z,61.68
2023-02-07T07:21:09.360Z,61.39
2023-02-07T07:22:12.326Z,61.33
2023-02-07T07:23:15.464Z,60.52
2023-02-07T07:24:18.514Z,60.16
2023-02-07T07:25:20.633Z,61.08
2023-02-07T07:26:23.643Z,60.45
2023-02-07T07:27:26.720Z,60.85
2023-02-07T07:28:29.713Z,60.09
2023-02-07T07:29:32.622Z,60.71
2023-02-07T07:30:36.039Z,59.92
2023-02-07T07:31:39.151Z,61.32
2023-02-07T07:32:42.169Z,60.15
2023-02-07T07:33:45.086Z,58.53
2023-02-07T07:34:49.793Z,60.32
2023-02-07T07:35:57.807Z,60.34
2023-02-07T07:37:00.749Z,60.91
2023-02-07T07:38:02.654Z,61.27
2023-02-07T07:39:07.164Z,61.10
2023-02-07T07:40:10.280Z,60.94
2023-02-07T07:41:13.211Z,60.86
2023-02-07T07:42:16.200Z,60.16
2023-02-07T07:43:33.968Z,59.75
2023-02-07T07:44:37.662Z,59.85
2023-02-07T07:45:42.027Z,58.85
2023-02-07T07:46:44.982Z,58.39
2023-02-07T07:47:47.171Z,58.38
2023-02-07T07:48:50.119Z,58.33
2023-02-07T07:49:53.876Z,58.76
2023-02-07T07:50:57.293Z,59.61
2023-02-07T07:52:00.254Z,59.35
2023-02-07T07:53:03.214Z,57.81
2023-02-07T07:54:06.162Z,59.20
2023-02-07T07:55:09.025Z,58.77
2023-02-07T07:56:12.039Z,58.02
2023-02-07T07:57:14.195Z,58.79
2023-02-07T07:58:17.430Z,58.46
2023-02-07T07:59:24.232Z,58.99
2023-02-07T08:00:27.424Z,59.29
2023-02-07T08:01:31.767Z,58.98
2023-02-07T08:02:34.689Z,58.24
2023-02-07T08:03:37.712Z,58.21
2023-02-07T08:04:39.948Z,58.56
2023-02-07T08:05:43.003Z,59.40
2023-02-07T08:06:46.138Z,58.84
2023-02-07T08:07:49.411Z,58.62
2023-02-07T08:08:52.358Z,59.12
2023-02-07T08:09:55.454Z,57.69
2023-02-07T08:11:02.540Z,58.04
2023-02-07T08:12:06.062Z,59.48
2023-02-07T08:13:09.011Z,59.75
2023-02-07T08:14:12.003Z,58.79
2023-02-07T08:15:14.957Z,57.06
2023-02-07T08:16:18.543Z,58.79
2023-02-07T08:17:22.901Z,59.60
2023-02-07T08:18:25.859Z,59.89
2023-02-07T08:19:28.952Z,59.23
2023-02-07T08:20:32.311Z,60.44
2023-02-07T08:21:36.597Z,59.42
2023-02-07T08:22:39.786Z,59.45
2023-02-07T08:23:42.747Z,59.24
2023-02-07T08:24:45.675Z,60.55
2023-02-07T08:25:50.198Z,59.74
2023-02-07T08:26:53.168Z,59.47
2023-02-07T08:27:55.132Z,59.09
2023-02-07T08:28:58.045Z,58.13
2023-02-07T08:30:01.032Z,60.04
2023-02-07T08:31:06.697Z,57.83
2023-02-07T08:32:09.781Z,58.30
2023-02-07T08:33:15.970Z,60.57
2023-02-07T08:34:24.128Z,61.34
2023-02-07T08:35:27.686Z,60.13
2023-02-07T08:36:29.646Z,61.71
2023-02-07T08:37:32.889Z,60.90
2023-02-07T08:38:35.957Z,61.27
2023-02-07T08:39:38.845Z,60.72
2023-02-07T08:40:41.854Z,60.21
2023-02-07T08:41:44.804Z,60.86
2023-02-07T08:42:47.785Z,60.93
2023-02-07T08:43:51.687Z,59.78
2023-02-07T08:44:55.316Z,60.82
2023-02-07T08:45:58.501Z,61.78
2023-02-07T08:47:00.634Z,60.81
2023-02-07T08:48:03.609Z,61.15
2023-02-07T08:49:07.926Z,61.09
2023-02-07T08:50:12.286Z,61.46
2023-02-07T08:51:14.245Z,59.68
2023-02-07T08:52:17.191Z,58.78
2023-02-07T08:53:20.099Z,59.49
2023-02-07T08:54:22.211Z,59.66
2023-02-07T08:55:25.179Z,60.93
2023-02-07T08:56:27.192Z,60.13
2023-02-07T08:57:30.168Z,59.06
2023-02-07T08:58:33.113Z,58.07
2023-02-07T08:59:36.048Z,59.13
2023-02-07T09:00:39.225Z,59.42
2023-02-07T09:01:42.385Z,60.19
2023-02-07T09:02:45.629Z,60.00
2023-02-07T09:03:47.638Z,62.14
2023-02-07T09:04:51.993Z,62.29
2023-02-07T09:05:59.084Z,60.21
2023-02-07T09:07:02.022Z,62.66
2023-02-07T09:08:05.384Z,61.87
2023-02-07T09:09:09.808Z,61.78
2023-02-07T09:10:12.768Z,61.07
2023-02-07T09:11:15.557Z,62.88
2023-02-07T09:12:18.582Z,61.76
2023-02-07T09:13:21.640Z,61.72
2023-02-07T09:14:24.583Z,60.38
2023-02-07T09:15:26.552Z,62.66
2023-02-07T09:16:30.012Z,62.70
2023-02-07T09:17:32.314Z,61.84
2023-02-07T09:18:36.164Z,61.87
2023-02-07T09:19:39.099Z,62.18
2023-02-07T09:20:45.197Z,60.52
2023-02-07T09:21:48.436Z,60.68
2023-02-07T09:23:08.578Z,60.79
2023-02-07T09:24:11.596Z,58.53
2023-02-07T09:25:13.644Z,61.28
2023-02-07T09:26:19.399Z,61.49
2023-02-07T09:27:22.563Z,61.60
2023-02-07T09:28:25.501Z,60.82
2023-02-07T09:29:28.481Z,60.54
2023-02-07T09:30:30.462Z,61.37
2023-02-07T09:31:36.083Z,59.91
2023-02-07T09:32:38.037Z,59.74
2023-02-07T09:33:41.390Z,61.67
2023-02-07T09:34:44.409Z,61.64
2023-02-07T09:35:48.707Z,64.20
2023-02-07T09:36:51.943Z,61.33
2023-02-07T09:37:54.234Z,61.63
2023-02-07T09:38:57.642Z,63.17
2023-02-07T09:40:00.560Z,64.10
2023-02-07T09:41:03.566Z,61.84
2023-02-07T09:42:25.978Z,61.11
2023-02-07T09:43:39.642Z,61.53
2023-02-07T09:44:56.338Z,61.18
2023-02-07T09:46:03.537Z,60.55
2023-02-07T09:47:12.887Z,61.77
2023-02-07T09:48:22.513Z,62.12
2023-02-07T09:49:34.529Z,63.67
2023-02-07T09:50:42.829Z,61.74
2023-02-07T09:51:47.809Z,61.50
2023-02-07T09:52:54.012Z,63.31
2023-02-07T09:54:02.024Z,60.69
2023-02-07T09:55:05.934Z,62.44
2023-02-07T09:56:10.634Z,63.59
2023-02-07T09:57:17.798Z,63.71
2023-02-07T09:58:28.764Z,63.68
2023-02-07T09:59:40.291Z,60.24
2023-02-07T10:00:44.552Z,62.71
2023-02-07T10:01:51.601Z,63.20
2023-02-07T10:02:59.814Z,62.03
2023-02-07T10:04:14.614Z,60.26
2023-02-07T10:05:19.771Z,62.00
2023-02-07T10:06:28.167Z,63.62
2023-02-07T10:07:33.001Z,62.99
2023-02-07T10:08:41.221Z,60.50
2023-02-07T10:09:47.384Z,63.41
2023-02-07T10:11:02.548Z,63.00
2023-02-07T10:12:17.423Z,63.75
2023-02-07T10:13:31.478Z,62.63
2023-02-07T10:14:56.139Z,62.22
2023-02-07T10:16:17.585Z,60.02
2023-02-07T10:17:35.296Z,63.11
2023-02-07T10:18:47.674Z,62.44
2023-02-07T10:20:01.213Z,62.56
2023-02-07T10:21:12.640Z,62.25
2023-02-07T10:22:26.023Z,63.77
2023-02-07T10:23:40.780Z,63.06
2023-02-07T10:25:01.217Z,62.78
2023-02-07T10:26:12.999Z,62.58
2023-02-07T10:27:24.063Z,64.33
2023-02-07T10:28:54.937Z,63.31
2023-02-07T10:30:03.976Z,61.54
2023-02-07T10:31:13.426Z,62.78
2023-02-07T10:32:20.439Z,63.38
2023-02-07T10:33:27.007Z,63.56
2023-02-07T10:34:35.040Z,62.68
2023-02-07T10:35:39.447Z,62.79
2023-02-07T10:36:46.545Z,61.92
2023-02-07T10:37:52.445Z,62.59
2023-02-07T10:39:09.516Z,63.69
2023-02-07T10:40:17.320Z,63.71
2023-02-07T10:41:22.869Z,64.28
2023-02-07T10:42:26.500Z,62.87
2023-02-07T10:43:32.930Z,62.28
2023-02-07T10:44:36.710Z,61.04
2023-02-07T10:45:43.159Z,59.80
2023-02-07T10:46:47.915Z,60.60
2023-02-07T10:47:50.871Z,61.09
2023-02-07T10:48:52.805Z,60.91
2023-02-07T10:49:57.184Z,62.31
2023-02-07T10:51:01.853Z,61.94
2023-02-07T10:52:24.214Z,61.04
2023-02-07T10:53:54.653Z,63.29
2023-02-07T10:55:01.207Z,63.49
2023-02-07T10:56:04.372Z,61.88
2023-02-07T10:57:21.920Z,62.14
2023-02-07T10:58:26.186Z,60.47
2023-02-07T10:59:36.631Z,61.57
2023-02-07T11:00:40.661Z,60.66
2023-02-07T11:01:54.564Z,60.30
2023-02-07T11:03:03.442Z,61.74
2023-02-07T11:04:24.099Z,60.48
2023-02-07T11:05:30.062Z,61.56
2023-02-07T11:06:35.813Z,61.48
2023-02-07T11:07:47.379Z,61.47
2023-02-07T11:08:50.916Z,62.63
2023-02-07T11:10:16.759Z,62.35
2023-02-07T11:11:28.329Z,59.88
2023-02-07T11:12:33.106Z,60.15
2023-02-07T11:13:48.641Z,61.32
2023-02-07T11:15:02.412Z,60.50
2023-02-07T11:16:08.732Z,60.72
2023-02-07T11:17:21.828Z,60.81
2023-02-07T11:18:30.160Z,60.89
2023-02-07T11:19:33.701Z,61.13
2023-02-07T11:20:38.828Z,61.42
2023-02-07T11:21:44.307Z,61.03
2023-02-07T11:22:47.382Z,59.85
2023-02-07T11:23:55.866Z,60.65
2023-02-07T11:25:04.031Z,60.57
2023-02-07T11:26:08.335Z,59.43
2023-02-07T11:27:16.362Z,59.42
2023-02-07T11:28:21.671Z,59.63
2023-02-07T11:29:26.457Z,60.09
2023-02-07T11:30:35.112Z,59.48
2023-02-07T11:31:39.197Z,60.15
2023-02-07T11:32:43.490Z,60.50
2023-02-07T11:33:45.599Z,59.66
2023-02-07T11:34:53.610Z,60.52
2023-02-07T11:36:05.098Z,58.23
2023-02-07T11:37:27.535Z,61.44
2023-02-07T11:38:29.941Z,61.12
2023-02-07T11:39:33.084Z,59.18
2023-02-07T11:40:39.615Z,58.95
2023-02-07T11:41:55.918Z,59.07
2023-02-07T11:43:03.503Z,58.72
2023-02-07T11:44:18.915Z,58.06
2023-02-07T11:45:24.323Z,58.10
2023-02-07T11:46:39.223Z,58.67
2023-02-07T11:47:44.559Z,59.20
2023-02-07T11:48:50.732Z,58.79
2023-02-07T11:49:58.327Z,58.39
2023-02-07T11:51:03.314Z,59.25
2023-02-07T11:52:07.480Z,59.57
2023-02-07T11:53:24.529Z,57.50
2023-02-07T11:54:28.845Z,58.03
2023-02-07T11:55:36.392Z,57.41
2023-02-07T11:56:41.914Z,59.82
2023-02-07T11:57:46.456Z,59.48
2023-02-07T11:58:49.689Z,57.24
2023-02-07T12:00:05.319Z,57.42
2023-02-07T12:01:19.165Z,60.27
2023-02-07T12:02:25.681Z,60.66
2023-02-07T12:03:32.745Z,58.03
2023-02-07T12:04:39.213Z,59.43
2023-02-07T12:05:45.957Z,57.69
2023-02-07T12:06:53.669Z,56.02
2023-02-07T12:08:03.210Z,56.05
2023-02-07T12:09:17.571Z,56.59
2023-02-07T12:10:23.764Z,58.32
2023-02-07T12:11:34.990Z,57.02
2023-02-07T12:12:43.561Z,57.61
2023-02-07T12:13:54.176Z,57.14
2023-02-07T12:15:01.148Z,55.99
2023-02-07T12:16:08.589Z,56.47
2023-02-07T12:17:20.759Z,58.23
2023-02-07T12:18:30.171Z,57.00
2023-02-07T12:19:37.362Z,54.66
2023-02-07T12:20:47.042Z,56.49
2023-02-07T12:21:57.021Z,55.31
2023-02-07T12:23:28.176Z,55.56
2023-02-07T12:24:36.027Z,55.67
2023-02-07T12:25:42.545Z,58.20
2023-02-07T12:26:52.443Z,54.27
2023-02-07T12:28:02.193Z,53.89
2023-02-07T12:29:21.672Z,54.92
2023-02-07T12:30:32.990Z,54.80
2023-02-07T12:31:47.237Z,53.96
2023-02-07T12:32:58.903Z,54.67
2023-02-07T12:34:10.626Z,56.28
2023-02-07T12:35:20.189Z,57.38
2023-02-07T12:36:29.887Z,56.01
2023-02-07T12:37:40.248Z,56.05
2023-02-07T12:38:48.397Z,56.36
2023-02-07T12:40:00.885Z,54.83
2023-02-07T12:41:14.885Z,54.28
2023-02-07T12:42:30.511Z,55.37
2023-02-07T12:43:35.983Z,55.10
2023-02-07T12:44:43.243Z,55.51
2023-02-07T12:45:58.065Z,51.99
2023-02-07T12:47:07.946Z,53.33
2023-02-07T12:48:22.544Z,53.16
2023-02-07T12:49:41.495Z,53.99
2023-02-07T12:51:00.012Z,53.34
2023-02-07T12:52:20.170Z,53.22
2023-02-07T12:53:37.945Z,54.29
2023-02-07T12:54:56.134Z,53.39
2023-02-07T12:56:11.561Z,54.76
2023-02-07T12:57:21.265Z,55.26
2023-02-07T12:58:40.372Z,53.17
2023-02-07T12:59:57.824Z,51.85
2023-02-07T13:01:06.269Z,51.07
2023-02-07T13:02:30.332Z,53.84
2023-02-07T13:03:49.440Z,53.06
2023-02-07T13:05:10.234Z,53.85
2023-02-07T13:06:23.694Z,53.23
2023-02-07T13:07:43.044Z,53.55
2023-02-07T13:08:54.924Z,52.83
2023-02-07T13:10:10.938Z,53.02
2023-02-07T13:11:27.880Z,52.12
2023-02-07T13:12:39.029Z,52.77
2023-02-07T13:13:52.312Z,51.27
2023-02-07T13:15:09.963Z,51.14
2023-02-07T13:16:19.427Z,52.94
2023-02-07T13:17:36.204Z,51.75
2023-02-07T13:18:47.111Z,51.57
2023-02-07T13:19:55.972Z,51.02
2023-02-07T13:21:06.162Z,51.47
2023-02-07T13:22:17.497Z,50.31
2023-02-07T13:23:23.749Z,50.29
2023-02-07T13:24:30.106Z,52.42
2023-02-07T13:25:37.031Z,49.77
2023-02-07T13:26:53.710Z,49.41
2023-02-07T13:28:00.379Z,50.38
2023-02-07T13:29:06.522Z,50.21
2023-02-07T13:30:16.119Z,50.34
2023-02-07T13:31:21.697Z,50.26
2023-02-07T13:32:26.582Z,49.83
2023-02-07T13:33:33.747Z,50.02
2023-02-07T13:34:43.582Z,50.24
2023-02-07T13:35:48.150Z,52.04
2023-02-07T13:36:52.752Z,51.60
2023-02-07T13:38:02.536Z,50.72
2023-02-07T13:39:19.996Z,49.30
2023-02-07T13:40:31.505Z,49.58
2023-02-07T13:41:48.111Z,49.29
2023-02-07T13:43:01.002Z,48.97
2023-02-07T13:44:10.668Z,50.69
2023-02-07T13:45:21.958Z,48.51
2023-02-07T13:46:47.495Z,51.88
2023-02-07T13:47:58.906Z,48.14
2023-02-07T13:49:09.601Z,49.79
2023-02-07T13:50:25.134Z,49.55
2023-02-07T13:51:36.600Z,47.99
2023-02-07T13:52:46.809Z,49.50
2023-02-07T13:53:56.785Z,48.35
2023-02-07T13:55:11.168Z,50.95
2023-02-07T13:56:29.724Z,51.75
2023-02-07T13:58:01.393Z,50.94
2023-02-07T13:59:21.980Z,49.22
2023-02-07T14:00:28.854Z,50.61
2023-02-07T14:01:33.834Z,49.43
2023-02-07T14:02:42.163Z,49.62
2023-02-07T14:04:01.622Z,49.75
2023-02-07T14:05:10.795Z,47.18
2023-02-07T14:06:23.714Z,48.26
2023-02-07T14:07:29.742Z,48.51
2023-02-07T14:08:32.711Z,48.42
2023-02-07T14:09:39.214Z,49.21
2023-02-07T14:10:46.020Z,49.38
2023-02-07T14:11:50.104Z,49.81
2023-02-07T14:12:53.783Z,49.92
2023-02-07T14:14:05.756Z,50.50
2023-02-07T14:15:55.464Z,50.75
2023-02-07T14:17:00.340Z,51.26
2023-02-07T14:18:04.462Z,49.91